sensor_id;sensor_type;location;lat;lon;timestamp;temperature;humidity
49503;DHT22;35409;48.776;9.204;2023-12-28T00:00:27;9.00;94.60
49503;DHT22;35409;48.776;9.204;2023-12-28T00:02:52;9.20;94.30
49503;DHT22;35409;48.776;9.204;2023-12-28T00:05:18;9.20;94.10
49503;DHT22;35409;48.776;9.204;2023-12-28T00:07:43;9.30;93.90
49503;DHT22;35409;48.776;9.204;2023-12-28T00:10:09;9.30;94.00
49503;DHT22;35409;48.776;9.204;2023-12-28T00:12:35;9.20;93.90
49503;DHT22;35409;48.776;9.204;2023-12-28T00:15:01;9.20;93.90
49503;DHT22;35409;48.776;9.204;2023-12-28T00:17:26;9.20;93.90
49503;DHT22;35409;48.776;9.204;2023-12-28T00:19:52;9.20;93.80
49503;DHT22;35409;48.776;9.204;2023-12-28T00:22:17;9.20;93.80
49503;DHT22;35409;48.776;9.204;2023-12-28T00:24:43;9.10;93.90
49503;DHT22;35409;48.776;9.204;2023-12-28T00:27:09;9.00;93.90
49503;DHT22;35409;48.776;9.204;2023-12-28T00:29:34;9.00;93.90
49503;DHT22;35409;48.776;9.204;2023-12-28T00:32:05;8.90;94.00
49503;DHT22;35409;48.776;9.204;2023-12-28T00:34:30;8.80;94.20
49503;DHT22;35409;48.776;9.204;2023-12-28T00:36:56;8.80;94.30
49503;DHT22;35409;48.776;9.204;2023-12-28T00:39:21;8.70;94.30
49503;DHT22;35409;48.776;9.204;2023-12-28T00:41:47;8.60;94.30
49503;DHT22;35409;48.776;9.204;2023-12-28T00:44:13;8.50;94.80
49503;DHT22;35409;48.776;9.204;2023-12-28T00:46:38;8.40;94.50
49503;DHT22;35409;48.776;9.204;2023-12-28T00:49:04;8.40;94.80
49503;DHT22;35409;48.776;9.204;2023-12-28T00:51:29;8.30;94.90
49503;DHT22;35409;48.776;9.204;2023-12-28T00:53:55;8.30;94.90
49503;DHT22;35409;48.776;9.204;2023-12-28T00:56:21;8.20;95.00
49503;DHT22;35409;48.776;9.204;2023-12-28T00:58:46;8.10;95.20
49503;DHT22;35409;48.776;9.204;2023-12-28T01:01:12;8.00;95.80
49503;DHT22;35409;48.776;9.204;2023-12-28T01:03:38;7.90;96.40
49503;DHT22;35409;48.776;9.204;2023-12-28T01:06:06;7.80;96.60
49503;DHT22;35409;48.776;9.204;2023-12-28T01:08:32;7.60;96.10
49503;DHT22;35409;48.776;9.204;2023-12-28T01:10:59;7.60;96.40
49503;DHT22;35409;48.776;9.204;2023-12-28T01:13:25;7.50;96.70
49503;DHT22;35409;48.776;9.204;2023-12-28T01:15:51;7.50;96.30
49503;DHT22;35409;48.776;9.204;2023-12-28T01:18:16;7.60;96.30
49503;DHT22;35409;48.776;9.204;2023-12-28T01:20:42;7.60;96.20
49503;DHT22;35409;48.776;9.204;2023-12-28T01:23:07;7.60;96.30
49503;DHT22;35409;48.776;9.204;2023-12-28T01:25:33;7.60;97.10
49503;DHT22;35409;48.776;9.204;2023-12-28T01:27:59;7.50;97.20
49503;DHT22;35409;48.776;9.204;2023-12-28T01:30:25;7.60;96.30
49503;DHT22;35409;48.776;9.204;2023-12-28T01:32:51;7.50;96.30
49503;DHT22;35409;48.776;9.204;2023-12-28T01:35:17;7.50;96.70
49503;DHT22;35409;48.776;9.204;2023-12-28T01:37:42;7.40;97.20
49503;DHT22;35409;48.776;9.204;2023-12-28T01:40:08;7.20;97.20
49503;DHT22;35409;48.776;9.204;2023-12-28T01:42:34;7.10;97.40
49503;DHT22;35409;48.776;9.204;2023-12-28T01:45:01;7.00;97.60
49503;DHT22;35409;48.776;9.204;2023-12-28T01:47:27;7.00;97.50
49503;DHT22;35409;48.776;9.204;2023-12-28T01:49:53;7.00;97.20
49503;DHT22;35409;48.776;9.204;2023-12-28T01:52:20;7.00;97.30
49503;DHT22;35409;48.776;9.204;2023-12-28T01:54:45;7.00;97.50
49503;DHT22;35409;48.776;9.204;2023-12-28T01:57:11;7.00;97.60
49503;DHT22;35409;48.776;9.204;2023-12-28T01:59:39;7.00;97.90
49503;DHT22;35409;48.776;9.204;2023-12-28T02:02:05;6.80;98.20
49503;DHT22;35409;48.776;9.204;2023-12-28T02:04:31;6.80;97.60
49503;DHT22;35409;48.776;9.204;2023-12-28T02:06:59;6.80;97.80
49503;DHT22;35409;48.776;9.204;2023-12-28T02:09:25;6.80;97.70
49503;DHT22;35409;48.776;9.204;2023-12-28T02:11:51;6.80;97.60
49503;DHT22;35409;48.776;9.204;2023-12-28T02:14:17;7.00;97.10
49503;DHT22;35409;48.776;9.204;2023-12-28T02:16:47;7.30;97.20
49503;DHT22;35409;48.776;9.204;2023-12-28T02:22:09;7.40;97.90
49503;DHT22;35409;48.776;9.204;2023-12-28T02:25:07;7.20;98.00
49503;DHT22;35409;48.776;9.204;2023-12-28T02:27:41;7.10;98.20
49503;DHT22;35409;48.776;9.204;2023-12-28T02:30:09;7.00;98.40
49503;DHT22;35409;48.776;9.204;2023-12-28T02:33:42;6.90;98.70
49503;DHT22;35409;48.776;9.204;2023-12-28T02:35:45;6.70;98.70
49503;DHT22;35409;48.776;9.204;2023-12-28T02:38:14;6.60;99.10
49503;DHT22;35409;48.776;9.204;2023-12-28T02:40:42;6.40;99.40
49503;DHT22;35409;48.776;9.204;2023-12-28T02:43:12;6.40;98.90
49503;DHT22;35409;48.776;9.204;2023-12-28T02:45:38;6.30;99.30
49503;DHT22;35409;48.776;9.204;2023-12-28T02:48:05;6.30;99.40
49503;DHT22;35409;48.776;9.204;2023-12-28T02:50:31;6.30;98.90
49503;DHT22;35409;48.776;9.204;2023-12-28T02:52:57;6.40;98.60
49503;DHT22;35409;48.776;9.204;2023-12-28T02:55:23;6.50;98.60
49503;DHT22;35409;48.776;9.204;2023-12-28T02:57:50;6.50;98.80
49503;DHT22;35409;48.776;9.204;2023-12-28T03:00:16;6.50;98.80
49503;DHT22;35409;48.776;9.204;2023-12-28T03:02:42;6.60;99.10
49503;DHT22;35409;48.776;9.204;2023-12-28T03:05:08;6.60;98.70
49503;DHT22;35409;48.776;9.204;2023-12-28T03:07:34;6.60;98.70
49503;DHT22;35409;48.776;9.204;2023-12-28T03:10:00;6.60;98.50
49503;DHT22;35409;48.776;9.204;2023-12-28T03:12:27;6.60;98.60
49503;DHT22;35409;48.776;9.204;2023-12-28T03:14:53;6.60;98.70
49503;DHT22;35409;48.776;9.204;2023-12-28T03:17:18;6.60;98.90
49503;DHT22;35409;48.776;9.204;2023-12-28T03:19:44;6.50;98.90
49503;DHT22;35409;48.776;9.204;2023-12-28T03:22:10;6.50;99.10
49503;DHT22;35409;48.776;9.204;2023-12-28T03:24:37;6.40;99.00
49503;DHT22;35409;48.776;9.204;2023-12-28T03:27:03;6.40;99.00
49503;DHT22;35409;48.776;9.204;2023-12-28T03:29:29;6.30;99.10
49503;DHT22;35409;48.776;9.204;2023-12-28T03:31:55;6.30;99.30
49503;DHT22;35409;48.776;9.204;2023-12-28T03:34:20;6.30;99.40
49503;DHT22;35409;48.776;9.204;2023-12-28T03:36:47;6.20;99.30
49503;DHT22;35409;48.776;9.204;2023-12-28T03:39:12;6.20;99.60
49503;DHT22;35409;48.776;9.204;2023-12-28T03:41:38;6.20;99.80
49503;DHT22;35409;48.776;9.204;2023-12-28T03:44:04;6.10;99.90
49503;DHT22;35409;48.776;9.204;2023-12-28T03:46:29;6.00;99.90
49503;DHT22;35409;48.776;9.204;2023-12-28T03:48:55;6.00;99.90
49503;DHT22;35409;48.776;9.204;2023-12-28T03:51:20;5.90;99.90
49503;DHT22;35409;48.776;9.204;2023-12-28T03:53:46;5.90;99.90
49503;DHT22;35409;48.776;9.204;2023-12-28T03:56:27;5.90;99.90
49503;DHT22;35409;48.776;9.204;2023-12-28T03:58:54;5.90;99.90
49503;DHT22;35409;48.776;9.204;2023-12-28T04:01:21;6.00;99.90
49503;DHT22;35409;48.776;9.204;2023-12-28T04:03:47;6.00;99.90
49503;DHT22;35409;48.776;9.204;2023-12-28T04:06:13;6.00;99.90
49503;DHT22;35409;48.776;9.204;2023-12-28T04:08:40;6.10;99.90
49503;DHT22;35409;48.776;9.204;2023-12-28T04:11:06;6.00;99.90
49503;DHT22;35409;48.776;9.204;2023-12-28T04:13:32;6.00;99.90
49503;DHT22;35409;48.776;9.204;2023-12-28T04:15:58;5.90;99.90
49503;DHT22;35409;48.776;9.204;2023-12-28T04:18:23;5.90;99.90
49503;DHT22;35409;48.776;9.204;2023-12-28T04:20:49;5.90;99.90
49503;DHT22;35409;48.776;9.204;2023-12-28T04:23:15;5.80;99.90
49503;DHT22;35409;48.776;9.204;2023-12-28T04:25:41;5.70;99.90
49503;DHT22;35409;48.776;9.204;2023-12-28T04:28:07;5.60;99.90
49503;DHT22;35409;48.776;9.204;2023-12-28T04:30:32;5.60;99.90
49503;DHT22;35409;48.776;9.204;2023-12-28T04:32:58;5.60;99.90
49503;DHT22;35409;48.776;9.204;2023-12-28T04:35:23;5.70;99.90
49503;DHT22;35409;48.776;9.204;2023-12-28T04:37:49;5.70;99.90
49503;DHT22;35409;48.776;9.204;2023-12-28T04:40:15;5.90;99.90
49503;DHT22;35409;48.776;9.204;2023-12-28T04:42:41;6.00;99.90
49503;DHT22;35409;48.776;9.204;2023-12-28T04:45:07;6.20;99.90
49503;DHT22;35409;48.776;9.204;2023-12-28T04:47:33;6.40;99.90
49503;DHT22;35409;48.776;9.204;2023-12-28T04:49:59;6.60;99.90
49503;DHT22;35409;48.776;9.204;2023-12-28T04:52:24;6.80;99.70
49503;DHT22;35409;48.776;9.204;2023-12-28T04:54:50;7.10;99.30
49503;DHT22;35409;48.776;9.204;2023-12-28T04:57:16;7.30;99.90
49503;DHT22;35409;48.776;9.204;2023-12-28T04:59:41;7.30;99.90
49503;DHT22;35409;48.776;9.204;2023-12-28T05:02:07;7.20;99.90
49503;DHT22;35409;48.776;9.204;2023-12-28T05:04:36;7.10;99.90
49503;DHT22;35409;48.776;9.204;2023-12-28T05:07:03;7.10;99.90
49503;DHT22;35409;48.776;9.204;2023-12-28T05:09:29;7.10;99.90
49503;DHT22;35409;48.776;9.204;2023-12-28T05:11:54;7.10;99.90
49503;DHT22;35409;48.776;9.204;2023-12-28T05:14:20;7.10;99.90
49503;DHT22;35409;48.776;9.204;2023-12-28T05:16:45;7.10;99.90
49503;DHT22;35409;48.776;9.204;2023-12-28T05:19:11;7.20;99.90
49503;DHT22;35409;48.776;9.204;2023-12-28T05:21:37;7.30;99.90
49503;DHT22;35409;48.776;9.204;2023-12-28T05:24:03;7.60;99.90
49503;DHT22;35409;48.776;9.204;2023-12-28T05:26:28;7.80;99.70
49503;DHT22;35409;48.776;9.204;2023-12-28T05:28:54;8.00;99.50
49503;DHT22;35409;48.776;9.204;2023-12-28T05:31:19;8.20;99.50
49503;DHT22;35409;48.776;9.204;2023-12-28T05:33:45;8.30;99.50
49503;DHT22;35409;48.776;9.204;2023-12-28T05:36:10;8.40;99.50
49503;DHT22;35409;48.776;9.204;2023-12-28T05:38:36;8.40;99.50
49503;DHT22;35409;48.776;9.204;2023-12-28T05:41:02;8.50;99.60
49503;DHT22;35409;48.776;9.204;2023-12-28T05:43:27;8.50;99.30
49503;DHT22;35409;48.776;9.204;2023-12-28T05:45:53;8.60;99.20
49503;DHT22;35409;48.776;9.204;2023-12-28T05:48:18;8.80;99.10
49503;DHT22;35409;48.776;9.204;2023-12-28T05:50:44;9.00;99.10
49503;DHT22;35409;48.776;9.204;2023-12-28T05:53:09;9.00;99.10
49503;DHT22;35409;48.776;9.204;2023-12-28T05:55:42;9.20;99.90
49503;DHT22;35409;48.776;9.204;2023-12-28T05:58:09;9.30;98.60
49503;DHT22;35409;48.776;9.204;2023-12-28T06:00:34;9.40;98.50
49503;DHT22;35409;48.776;9.204;2023-12-28T06:03:02;9.30;98.60
49503;DHT22;35409;48.776;9.204;2023-12-28T06:05:27;9.30;98.70
49503;DHT22;35409;48.776;9.204;2023-12-28T06:07:53;9.30;98.90
49503;DHT22;35409;48.776;9.204;2023-12-28T06:10:19;9.20;99.10
49503;DHT22;35409;48.776;9.204;2023-12-28T06:12:45;9.20;99.30
49503;DHT22;35409;48.776;9.204;2023-12-28T06:15:10;9.20;99.50
49503;DHT22;35409;48.776;9.204;2023-12-28T06:17:36;9.20;99.70
49503;DHT22;35409;48.776;9.204;2023-12-28T06:20:02;9.30;99.80
49503;DHT22;35409;48.776;9.204;2023-12-28T06:22:27;9.30;99.90
49503;DHT22;35409;48.776;9.204;2023-12-28T06:24:54;9.30;99.90
49503;DHT22;35409;48.776;9.204;2023-12-28T06:27:20;9.30;99.90
49503;DHT22;35409;48.776;9.204;2023-12-28T06:29:46;9.30;99.90
49503;DHT22;35409;48.776;9.204;2023-12-28T06:32:11;9.40;99.90
49503;DHT22;35409;48.776;9.204;2023-12-28T06:34:37;9.50;99.90
49503;DHT22;35409;48.776;9.204;2023-12-28T06:37:03;9.50;99.90
49503;DHT22;35409;48.776;9.204;2023-12-28T06:39:28;9.60;99.90
49503;DHT22;35409;48.776;9.204;2023-12-28T06:41:54;9.60;99.90
49503;DHT22;35409;48.776;9.204;2023-12-28T06:44:20;9.60;99.90
49503;DHT22;35409;48.776;9.204;2023-12-28T06:46:45;9.70;99.90
49503;DHT22;35409;48.776;9.204;2023-12-28T06:49:11;9.80;99.90
49503;DHT22;35409;48.776;9.204;2023-12-28T06:51:36;9.70;99.90
49503;DHT22;35409;48.776;9.204;2023-12-28T06:54:02;9.80;99.90
49503;DHT22;35409;48.776;9.204;2023-12-28T06:56:28;9.80;99.90
49503;DHT22;35409;48.776;9.204;2023-12-28T06:58:54;9.90;99.90
49503;DHT22;35409;48.776;9.204;2023-12-28T07:01:19;9.90;99.90
49503;DHT22;35409;48.776;9.204;2023-12-28T07:03:45;10.00;99.90
49503;DHT22;35409;48.776;9.204;2023-12-28T07:06:11;10.00;99.90
49503;DHT22;35409;48.776;9.204;2023-12-28T07:08:36;10.00;99.90
49503;DHT22;35409;48.776;9.204;2023-12-28T07:11:02;10.00;99.90
49503;DHT22;35409;48.776;9.204;2023-12-28T07:13:27;10.00;99.90
49503;DHT22;35409;48.776;9.204;2023-12-28T07:15:53;10.10;99.90
49503;DHT22;35409;48.776;9.204;2023-12-28T07:18:19;10.10;99.90
49503;DHT22;35409;48.776;9.204;2023-12-28T07:20:44;10.10;99.90
49503;DHT22;35409;48.776;9.204;2023-12-28T07:23:10;10.10;99.90
49503;DHT22;35409;48.776;9.204;2023-12-28T07:25:36;10.00;99.90
49503;DHT22;35409;48.776;9.204;2023-12-28T07:28:01;10.00;99.90
49503;DHT22;35409;48.776;9.204;2023-12-28T07:30:27;10.00;99.90
49503;DHT22;35409;48.776;9.204;2023-12-28T07:32:53;9.90;99.90
49503;DHT22;35409;48.776;9.204;2023-12-28T07:35:19;9.90;99.90
49503;DHT22;35409;48.776;9.204;2023-12-28T07:37:44;9.90;99.90
49503;DHT22;35409;48.776;9.204;2023-12-28T07:40:12;9.90;99.90
49503;DHT22;35409;48.776;9.204;2023-12-28T07:42:38;9.90;99.90
49503;DHT22;35409;48.776;9.204;2023-12-28T07:45:04;9.90;99.90
49503;DHT22;35409;48.776;9.204;2023-12-28T07:47:30;9.90;99.90
49503;DHT22;35409;48.776;9.204;2023-12-28T07:49:55;9.90;99.90
49503;DHT22;35409;48.776;9.204;2023-12-28T07:52:21;9.90;99.90
49503;DHT22;35409;48.776;9.204;2023-12-28T07:54:46;9.90;99.90
49503;DHT22;35409;48.776;9.204;2023-12-28T07:57:12;9.90;99.90
49503;DHT22;35409;48.776;9.204;2023-12-28T07:59:38;9.80;99.90
49503;DHT22;35409;48.776;9.204;2023-12-28T08:02:03;9.80;99.90
49503;DHT22;35409;48.776;9.204;2023-12-28T08:04:29;9.80;99.90
49503;DHT22;35409;48.776;9.204;2023-12-28T08:06:55;9.60;99.90
49503;DHT22;35409;48.776;9.204;2023-12-28T08:09:20;9.40;99.90
49503;DHT22;35409;48.776;9.204;2023-12-28T08:11:46;9.20;99.90
49503;DHT22;35409;48.776;9.204;2023-12-28T08:14:11;9.00;99.90
49503;DHT22;35409;48.776;9.204;2023-12-28T08:16:37;8.80;99.90
49503;DHT22;35409;48.776;9.204;2023-12-28T08:19:02;8.70;99.90
49503;DHT22;35409;48.776;9.204;2023-12-28T08:21:28;8.50;99.90
49503;DHT22;35409;48.776;9.204;2023-12-28T08:23:54;8.40;99.90
49503;DHT22;35409;48.776;9.204;2023-12-28T08:26:20;8.30;99.90
49503;DHT22;35409;48.776;9.204;2023-12-28T08:28:45;8.20;99.90
49503;DHT22;35409;48.776;9.204;2023-12-28T08:31:11;8.20;99.90
49503;DHT22;35409;48.776;9.204;2023-12-28T08:33:37;8.20;99.90
49503;DHT22;35409;48.776;9.204;2023-12-28T08:36:09;8.20;99.90
49503;DHT22;35409;48.776;9.204;2023-12-28T08:38:35;8.20;99.90
49503;DHT22;35409;48.776;9.204;2023-12-28T08:41:00;8.20;99.90
49503;DHT22;35409;48.776;9.204;2023-12-28T08:43:29;8.20;99.90
49503;DHT22;35409;48.776;9.204;2023-12-28T08:45:54;8.30;99.90
49503;DHT22;35409;48.776;9.204;2023-12-28T08:48:20;8.30;99.90
49503;DHT22;35409;48.776;9.204;2023-12-28T08:50:46;8.30;99.90
49503;DHT22;35409;48.776;9.204;2023-12-28T08:53:12;8.30;99.90
49503;DHT22;35409;48.776;9.204;2023-12-28T08:55:37;8.40;99.90
49503;DHT22;35409;48.776;9.204;2023-12-28T08:58:03;8.40;99.90
49503;DHT22;35409;48.776;9.204;2023-12-28T09:00:28;8.50;99.90
49503;DHT22;35409;48.776;9.204;2023-12-28T09:02:54;8.60;99.90
49503;DHT22;35409;48.776;9.204;2023-12-28T09:05:20;8.60;99.90
49503;DHT22;35409;48.776;9.204;2023-12-28T09:07:46;8.70;99.90
49503;DHT22;35409;48.776;9.204;2023-12-28T09:10:12;8.80;99.90
49503;DHT22;35409;48.776;9.204;2023-12-28T09:12:39;8.80;99.90
49503;DHT22;35409;48.776;9.204;2023-12-28T09:15:06;8.80;99.90
49503;DHT22;35409;48.776;9.204;2023-12-28T09:17:32;8.80;99.90
49503;DHT22;35409;48.776;9.204;2023-12-28T09:19:58;8.80;99.90
49503;DHT22;35409;48.776;9.204;2023-12-28T09:22:24;8.80;99.90
49503;DHT22;35409;48.776;9.204;2023-12-28T09:24:50;8.80;99.90
49503;DHT22;35409;48.776;9.204;2023-12-28T09:27:15;8.70;99.90
49503;DHT22;35409;48.776;9.204;2023-12-28T09:29:41;8.80;99.90
49503;DHT22;35409;48.776;9.204;2023-12-28T09:32:06;8.80;99.90
49503;DHT22;35409;48.776;9.204;2023-12-28T09:34:32;8.80;99.90
49503;DHT22;35409;48.776;9.204;2023-12-28T09:36:58;8.80;99.90
49503;DHT22;35409;48.776;9.204;2023-12-28T09:39:24;8.80;99.90
49503;DHT22;35409;48.776;9.204;2023-12-28T09:42:04;8.90;99.90
49503;DHT22;35409;48.776;9.204;2023-12-28T09:44:32;9.00;99.90
49503;DHT22;35409;48.776;9.204;2023-12-28T09:46:58;9.00;99.90
49503;DHT22;35409;48.776;9.204;2023-12-28T09:49:25;9.10;99.90
49503;DHT22;35409;48.776;9.204;2023-12-28T09:51:50;9.20;99.90
49503;DHT22;35409;48.776;9.204;2023-12-28T09:54:16;9.30;99.90
49503;DHT22;35409;48.776;9.204;2023-12-28T09:56:44;9.50;99.90
49503;DHT22;35409;48.776;9.204;2023-12-28T09:59:11;9.70;99.90
49503;DHT22;35409;48.776;9.204;2023-12-28T10:01:37;9.80;99.90
49503;DHT22;35409;48.776;9.204;2023-12-28T10:04:02;10.00;99.90
49503;DHT22;35409;48.776;9.204;2023-12-28T10:06:29;10.20;99.90
49503;DHT22;35409;48.776;9.204;2023-12-28T10:08:55;10.30;99.90
49503;DHT22;35409;48.776;9.204;2023-12-28T10:11:21;10.40;99.90
49503;DHT22;35409;48.776;9.204;2023-12-28T10:13:48;10.60;99.90
49503;DHT22;35409;48.776;9.204;2023-12-28T10:16:15;10.70;99.90
49503;DHT22;35409;48.776;9.204;2023-12-28T10:18:42;10.90;99.90
49503;DHT22;35409;48.776;9.204;2023-12-28T10:21:09;10.90;99.90
49503;DHT22;35409;48.776;9.204;2023-12-28T10:23:35;11.00;99.90
49503;DHT22;35409;48.776;9.204;2023-12-28T10:26:00;11.00;99.90
49503;DHT22;35409;48.776;9.204;2023-12-28T10:28:26;11.00;99.90
49503;DHT22;35409;48.776;9.204;2023-12-28T10:30:55;11.00;99.90
49503;DHT22;35409;48.776;9.204;2023-12-28T10:33:23;11.00;99.90
49503;DHT22;35409;48.776;9.204;2023-12-28T10:35:52;11.00;99.90
49503;DHT22;35409;48.776;9.204;2023-12-28T10:38:18;11.10;99.90
49503;DHT22;35409;48.776;9.204;2023-12-28T10:40:46;11.00;99.90
49503;DHT22;35409;48.776;9.204;2023-12-28T10:43:16;11.00;99.90
49503;DHT22;35409;48.776;9.204;2023-12-28T10:45:46;11.00;99.90
49503;DHT22;35409;48.776;9.204;2023-12-28T10:48:12;11.00;99.90
49503;DHT22;35409;48.776;9.204;2023-12-28T10:50:42;11.00;99.90
49503;DHT22;35409;48.776;9.204;2023-12-28T10:56:33;11.10;99.90
49503;DHT22;35409;48.776;9.204;2023-12-28T11:09:10;11.80;99.90
49503;DHT22;35409;48.776;9.204;2023-12-28T11:11:38;11.60;99.90
49503;DHT22;35409;48.776;9.204;2023-12-28T11:14:03;11.60;99.90
49503;DHT22;35409;48.776;9.204;2023-12-28T11:16:30;11.50;99.90
49503;DHT22;35409;48.776;9.204;2023-12-28T11:18:57;11.60;99.90
49503;DHT22;35409;48.776;9.204;2023-12-28T11:21:24;11.50;99.90
49503;DHT22;35409;48.776;9.204;2023-12-28T11:23:50;11.50;99.90
49503;DHT22;35409;48.776;9.204;2023-12-28T11:26:19;11.50;99.90
49503;DHT22;35409;48.776;9.204;2023-12-28T11:28:45;11.50;99.90
49503;DHT22;35409;48.776;9.204;2023-12-28T11:31:14;11.50;99.90
49503;DHT22;35409;48.776;9.204;2023-12-28T11:33:47;11.40;99.90
49503;DHT22;35409;48.776;9.204;2023-12-28T11:36:34;11.40;99.90
49503;DHT22;35409;48.776;9.204;2023-12-28T11:39:05;11.40;99.90
49503;DHT22;35409;48.776;9.204;2023-12-28T11:41:35;11.30;99.90
49503;DHT22;35409;48.776;9.204;2023-12-28T11:44:01;11.40;99.90
49503;DHT22;35409;48.776;9.204;2023-12-28T11:46:29;11.30;99.90
49503;DHT22;35409;48.776;9.204;2023-12-28T11:49:06;11.30;99.90
49503;DHT22;35409;48.776;9.204;2023-12-28T11:51:34;11.30;99.90
49503;DHT22;35409;48.776;9.204;2023-12-28T11:54:01;11.30;99.90
49503;DHT22;35409;48.776;9.204;2023-12-28T11:56:31;11.30;99.90
49503;DHT22;35409;48.776;9.204;2023-12-28T11:59:00;11.20;99.90
49503;DHT22;35409;48.776;9.204;2023-12-28T12:01:26;11.20;99.90
49503;DHT22;35409;48.776;9.204;2023-12-28T12:03:51;11.20;99.90
49503;DHT22;35409;48.776;9.204;2023-12-28T12:06:18;11.30;99.90
49503;DHT22;35409;48.776;9.204;2023-12-28T12:08:47;11.30;99.90
49503;DHT22;35409;48.776;9.204;2023-12-28T12:11:12;11.30;99.90
49503;DHT22;35409;48.776;9.204;2023-12-28T12:13:38;11.40;99.90
49503;DHT22;35409;48.776;9.204;2023-12-28T12:16:04;11.40;99.90
49503;DHT22;35409;48.776;9.204;2023-12-28T12:18:32;11.40;99.90
49503;DHT22;35409;48.776;9.204;2023-12-28T12:20:58;11.40;99.90
49503;DHT22;35409;48.776;9.204;2023-12-28T12:23:24;11.50;99.90
49503;DHT22;35409;48.776;9.204;2023-12-28T12:25:51;11.60;99.90
49503;DHT22;35409;48.776;9.204;2023-12-28T12:28:17;11.60;99.90
49503;DHT22;35409;48.776;9.204;2023-12-28T12:31:09;11.60;99.90
49503;DHT22;35409;48.776;9.204;2023-12-28T12:33:34;11.70;99.90
49503;DHT22;35409;48.776;9.204;2023-12-28T12:36:00;11.60;99.90
49503;DHT22;35409;48.776;9.204;2023-12-28T12:38:26;11.60;99.90
49503;DHT22;35409;48.776;9.204;2023-12-28T12:40:52;11.60;99.90
49503;DHT22;35409;48.776;9.204;2023-12-28T12:43:18;11.60;99.90
49503;DHT22;35409;48.776;9.204;2023-12-28T12:45:45;11.60;99.90
49503;DHT22;35409;48.776;9.204;2023-12-28T12:48:11;11.60;99.90
49503;DHT22;35409;48.776;9.204;2023-12-28T12:55:31;11.70;99.90
49503;DHT22;35409;48.776;9.204;2023-12-28T12:57:57;11.60;99.90
49503;DHT22;35409;48.776;9.204;2023-12-28T13:00:23;11.60;99.90
49503;DHT22;35409;48.776;9.204;2023-12-28T13:02:52;11.60;99.90
49503;DHT22;35409;48.776;9.204;2023-12-28T13:05:19;11.60;99.90
49503;DHT22;35409;48.776;9.204;2023-12-28T13:07:45;11.50;99.90
49503;DHT22;35409;48.776;9.204;2023-12-28T13:10:10;11.50;99.90
49503;DHT22;35409;48.776;9.204;2023-12-28T13:12:36;11.60;99.90
49503;DHT22;35409;48.776;9.204;2023-12-28T13:15:02;11.60;99.90
49503;DHT22;35409;48.776;9.204;2023-12-28T13:17:28;11.60;99.90
49503;DHT22;35409;48.776;9.204;2023-12-28T13:19:54;11.70;99.90
49503;DHT22;35409;48.776;9.204;2023-12-28T13:22:19;11.70;99.90
49503;DHT22;35409;48.776;9.204;2023-12-28T13:24:45;11.70;99.90
49503;DHT22;35409;48.776;9.204;2023-12-28T13:27:10;11.70;99.90
49503;DHT22;35409;48.776;9.204;2023-12-28T13:29:36;11.60;99.90
49503;DHT22;35409;48.776;9.204;2023-12-28T13:32:02;11.60;99.90
49503;DHT22;35409;48.776;9.204;2023-12-28T13:34:29;11.50;99.90
49503;DHT22;35409;48.776;9.204;2023-12-28T13:36:54;11.50;99.90
49503;DHT22;35409;48.776;9.204;2023-12-28T13:39:20;11.40;99.90
49503;DHT22;35409;48.776;9.204;2023-12-28T13:41:46;11.40;99.90
49503;DHT22;35409;48.776;9.204;2023-12-28T13:44:12;11.40;99.90
49503;DHT22;35409;48.776;9.204;2023-12-28T13:46:38;11.30;99.90
49503;DHT22;35409;48.776;9.204;2023-12-28T13:49:04;11.20;99.90
49503;DHT22;35409;48.776;9.204;2023-12-28T13:51:31;11.30;99.90
49503;DHT22;35409;48.776;9.204;2023-12-28T13:53:57;11.30;99.90
49503;DHT22;35409;48.776;9.204;2023-12-28T13:56:23;11.30;99.90
49503;DHT22;35409;48.776;9.204;2023-12-28T13:58:48;11.30;99.90
49503;DHT22;35409;48.776;9.204;2023-12-28T14:01:14;11.30;99.90
49503;DHT22;35409;48.776;9.204;2023-12-28T14:03:39;11.30;99.90
49503;DHT22;35409;48.776;9.204;2023-12-28T14:06:05;11.20;99.90
49503;DHT22;35409;48.776;9.204;2023-12-28T14:08:31;11.20;99.90
49503;DHT22;35409;48.776;9.204;2023-12-28T14:10:56;11.20;99.90
49503;DHT22;35409;48.776;9.204;2023-12-28T14:13:22;11.10;99.90
49503;DHT22;35409;48.776;9.204;2023-12-28T14:15:48;11.10;99.90
49503;DHT22;35409;48.776;9.204;2023-12-28T14:18:14;11.10;99.90
49503;DHT22;35409;48.776;9.204;2023-12-28T14:20:39;11.10;99.90
49503;DHT22;35409;48.776;9.204;2023-12-28T14:23:05;11.20;99.90
49503;DHT22;35409;48.776;9.204;2023-12-28T14:25:31;11.10;99.90
49503;DHT22;35409;48.776;9.204;2023-12-28T14:27:57;11.20;99.90
49503;DHT22;35409;48.776;9.204;2023-12-28T14:30:23;11.20;99.90
49503;DHT22;35409;48.776;9.204;2023-12-28T14:32:49;11.20;99.90
49503;DHT22;35409;48.776;9.204;2023-12-28T14:35:15;11.10;99.90
49503;DHT22;35409;48.776;9.204;2023-12-28T14:37:44;11.00;99.90
49503;DHT22;35409;48.776;9.204;2023-12-28T14:40:10;10.90;99.90
49503;DHT22;35409;48.776;9.204;2023-12-28T14:42:37;10.70;99.90
49503;DHT22;35409;48.776;9.204;2023-12-28T14:45:03;10.60;99.90
49503;DHT22;35409;48.776;9.204;2023-12-28T14:47:29;10.60;99.90
49503;DHT22;35409;48.776;9.204;2023-12-28T14:49:55;10.50;99.90
49503;DHT22;35409;48.776;9.204;2023-12-28T14:52:22;10.40;99.90
49503;DHT22;35409;48.776;9.204;2023-12-28T14:54:49;10.40;99.90
49503;DHT22;35409;48.776;9.204;2023-12-28T14:57:19;10.30;99.90
49503;DHT22;35409;48.776;9.204;2023-12-28T14:59:44;10.30;99.90
49503;DHT22;35409;48.776;9.204;2023-12-28T15:02:10;10.30;99.90
49503;DHT22;35409;48.776;9.204;2023-12-28T15:04:35;10.30;99.90
49503;DHT22;35409;48.776;9.204;2023-12-28T15:07:03;10.30;99.90
49503;DHT22;35409;48.776;9.204;2023-12-28T15:09:29;10.30;99.90
49503;DHT22;35409;48.776;9.204;2023-12-28T15:11:56;10.40;99.90
49503;DHT22;35409;48.776;9.204;2023-12-28T15:14:21;10.40;99.90
49503;DHT22;35409;48.776;9.204;2023-12-28T15:16:47;10.40;99.90
49503;DHT22;35409;48.776;9.204;2023-12-28T15:19:14;10.50;99.90
49503;DHT22;35409;48.776;9.204;2023-12-28T15:21:40;10.60;99.90
49503;DHT22;35409;48.776;9.204;2023-12-28T15:24:06;10.60;99.90
49503;DHT22;35409;48.776;9.204;2023-12-28T15:26:32;10.60;99.90
49503;DHT22;35409;48.776;9.204;2023-12-28T15:28:58;10.70;99.90
49503;DHT22;35409;48.776;9.204;2023-12-28T15:31:23;10.60;99.90
49503;DHT22;35409;48.776;9.204;2023-12-28T15:33:49;10.60;99.90
49503;DHT22;35409;48.776;9.204;2023-12-28T15:36:15;10.60;99.90
49503;DHT22;35409;48.776;9.204;2023-12-28T15:38:41;10.50;99.90
49503;DHT22;35409;48.776;9.204;2023-12-28T15:41:07;10.60;99.90
49503;DHT22;35409;48.776;9.204;2023-12-28T15:43:34;10.50;99.90
49503;DHT22;35409;48.776;9.204;2023-12-28T15:45:59;10.50;99.90
49503;DHT22;35409;48.776;9.204;2023-12-28T15:48:25;10.60;99.90
49503;DHT22;35409;48.776;9.204;2023-12-28T15:50:51;10.60;99.90
49503;DHT22;35409;48.776;9.204;2023-12-28T15:53:16;10.60;99.90
49503;DHT22;35409;48.776;9.204;2023-12-28T15:55:42;10.50;99.90